sensor_id;sensor_type;location;lat;lon;timestamp;P1;durP1;ratioP1;P2;durP2;ratioP2
19891;SDS011;10108;50.142;8.724;2023-12-28T00:01:08;12.95;;;6.13;;
19891;SDS011;10108;50.142;8.724;2023-12-28T00:03:35;12.18;;;6.38;;
19891;SDS011;10108;50.142;8.724;2023-12-28T00:06:01;14.98;;;6.10;;
19891;SDS011;10108;50.142;8.724;2023-12-28T00:08:27;12.52;;;5.82;;
19891;SDS011;10108;50.142;8.724;2023-12-28T00:10:53;12.07;;;6.05;;
19891;SDS011;10108;50.142;8.724;2023-12-28T00:13:19;12.95;;;6.32;;
19891;SDS011;10108;50.142;8.724;2023-12-28T00:15:45;14.55;;;6.32;;
19891;SDS011;10108;50.142;8.724;2023-12-28T00:18:11;14.15;;;6.45;;
19891;SDS011;10108;50.142;8.724;2023-12-28T00:20:38;13.77;;;6.50;;
19891;SDS011;10108;50.142;8.724;2023-12-28T00:23:04;11.38;;;6.35;;
19891;SDS011;10108;50.142;8.724;2023-12-28T00:25:31;11.98;;;6.15;;
19891;SDS011;10108;50.142;8.724;2023-12-28T00:27:57;13.65;;;6.70;;
19891;SDS011;10108;50.142;8.724;2023-12-28T00:30:23;12.30;;;5.70;;
19891;SDS011;10108;50.142;8.724;2023-12-28T00:32:50;11.90;;;6.43;;
19891;SDS011;10108;50.142;8.724;2023-12-28T00:35:16;12.82;;;6.18;;
19891;SDS011;10108;50.142;8.724;2023-12-28T00:37:42;12.30;;;6.28;;
19891;SDS011;10108;50.142;8.724;2023-12-28T00:40:08;13.95;;;6.10;;
19891;SDS011;10108;50.142;8.724;2023-12-28T00:42:34;12.98;;;6.72;;
19891;SDS011;10108;50.142;8.724;2023-12-28T00:45:01;14.80;;;6.35;;
19891;SDS011;10108;50.142;8.724;2023-12-28T00:47:28;11.35;;;6.03;;
19891;SDS011;10108;50.142;8.724;2023-12-28T00:49:54;13.82;;;6.47;;
19891;SDS011;10108;50.142;8.724;2023-12-28T00:52:20;13.35;;;6.55;;
19891;SDS011;10108;50.142;8.724;2023-12-28T00:54:46;14.57;;;6.40;;
19891;SDS011;10108;50.142;8.724;2023-12-28T00:57:13;12.02;;;6.03;;
19891;SDS011;10108;50.142;8.724;2023-12-28T00:59:40;12.98;;;6.43;;
19891;SDS011;10108;50.142;8.724;2023-12-28T01:02:06;11.02;;;5.85;;
19891;SDS011;10108;50.142;8.724;2023-12-28T01:04:32;11.63;;;6.03;;
19891;SDS011;10108;50.142;8.724;2023-12-28T01:06:58;12.50;;;6.05;;
19891;SDS011;10108;50.142;8.724;2023-12-28T01:09:27;11.68;;;6.35;;
19891;SDS011;10108;50.142;8.724;2023-12-28T01:11:54;12.05;;;6.10;;
19891;SDS011;10108;50.142;8.724;2023-12-28T01:14:20;11.65;;;6.00;;
19891;SDS011;10108;50.142;8.724;2023-12-28T01:16:46;12.98;;;6.20;;
19891;SDS011;10108;50.142;8.724;2023-12-28T01:19:12;13.40;;;6.05;;
19891;SDS011;10108;50.142;8.724;2023-12-28T01:21:38;12.23;;;6.00;;
19891;SDS011;10108;50.142;8.724;2023-12-28T01:24:04;11.43;;;6.40;;
19891;SDS011;10108;50.142;8.724;2023-12-28T01:26:30;11.57;;;5.70;;
19891;SDS011;10108;50.142;8.724;2023-12-28T01:28:57;13.70;;;6.00;;
19891;SDS011;10108;50.142;8.724;2023-12-28T01:31:23;13.48;;;5.88;;
19891;SDS011;10108;50.142;8.724;2023-12-28T01:33:50;11.07;;;5.32;;
19891;SDS011;10108;50.142;8.724;2023-12-28T01:36:16;11.77;;;5.10;;
19891;SDS011;10108;50.142;8.724;2023-12-28T01:38:46;11.68;;;5.78;;
19891;SDS011;10108;50.142;8.724;2023-12-28T01:41:13;11.68;;;5.60;;
19891;SDS011;10108;50.142;8.724;2023-12-28T01:43:44;9.88;;;5.45;;
19891;SDS011;10108;50.142;8.724;2023-12-28T01:46:16;11.40;;;5.90;;
19891;SDS011;10108;50.142;8.724;2023-12-28T01:48:44;11.32;;;5.25;;
19891;SDS011;10108;50.142;8.724;2023-12-28T01:51:14;11.05;;;5.70;;
19891;SDS011;10108;50.142;8.724;2023-12-28T01:53:41;9.60;;;5.30;;
19891;SDS011;10108;50.142;8.724;2023-12-28T01:56:08;11.57;;;5.30;;
19891;SDS011;10108;50.142;8.724;2023-12-28T01:58:35;10.80;;;5.20;;
19891;SDS011;10108;50.142;8.724;2023-12-28T02:01:03;11.30;;;5.07;;
19891;SDS011;10108;50.142;8.724;2023-12-28T02:03:30;10.15;;;4.93;;
19891;SDS011;10108;50.142;8.724;2023-12-28T02:05:57;8.63;;;4.90;;
19891;SDS011;10108;50.142;8.724;2023-12-28T02:08:24;10.00;;;4.60;;
19891;SDS011;10108;50.142;8.724;2023-12-28T02:10:51;12.32;;;5.57;;
19891;SDS011;10108;50.142;8.724;2023-12-28T02:13:18;11.63;;;5.00;;
19891;SDS011;10108;50.142;8.724;2023-12-28T02:15:44;10.40;;;5.35;;
19891;SDS011;10108;50.142;8.724;2023-12-28T02:18:17;10.95;;;5.18;;
19891;SDS011;10108;50.142;8.724;2023-12-28T02:20:47;9.73;;;4.80;;
19891;SDS011;10108;50.142;8.724;2023-12-28T02:23:15;12.05;;;5.20;;
19891;SDS011;10108;50.142;8.724;2023-12-28T02:25:42;11.65;;;5.68;;
19891;SDS011;10108;50.142;8.724;2023-12-28T02:28:09;10.35;;;5.28;;
19891;SDS011;10108;50.142;8.724;2023-12-28T02:30:35;10.52;;;5.43;;
19891;SDS011;10108;50.142;8.724;2023-12-28T02:33:11;12.45;;;5.65;;
19891;SDS011;10108;50.142;8.724;2023-12-28T02:35:52;10.18;;;5.20;;
19891;SDS011;10108;50.142;8.724;2023-12-28T02:38:23;11.20;;;4.95;;
19891;SDS011;10108;50.142;8.724;2023-12-28T02:40:50;9.65;;;5.18;;
19891;SDS011;10108;50.142;8.724;2023-12-28T02:43:17;10.93;;;5.10;;
19891;SDS011;10108;50.142;8.724;2023-12-28T02:45:44;9.40;;;5.20;;
19891;SDS011;10108;50.142;8.724;2023-12-28T02:48:10;9.65;;;5.10;;
19891;SDS011;10108;50.142;8.724;2023-12-28T02:50:36;10.02;;;5.30;;
19891;SDS011;10108;50.142;8.724;2023-12-28T02:53:03;12.27;;;5.65;;
19891;SDS011;10108;50.142;8.724;2023-12-28T02:55:29;11.10;;;5.65;;
19891;SDS011;10108;50.142;8.724;2023-12-28T02:57:55;11.27;;;5.38;;
19891;SDS011;10108;50.142;8.724;2023-12-28T03:00:25;9.48;;;5.28;;
19891;SDS011;10108;50.142;8.724;2023-12-28T03:02:52;9.15;;;4.97;;
19891;SDS011;10108;50.142;8.724;2023-12-28T03:05:18;11.40;;;5.38;;
19891;SDS011;10108;50.142;8.724;2023-12-28T03:07:44;9.38;;;5.10;;
19891;SDS011;10108;50.142;8.724;2023-12-28T03:10:11;10.15;;;4.70;;
19891;SDS011;10108;50.142;8.724;2023-12-28T03:12:37;10.98;;;5.10;;
19891;SDS011;10108;50.142;8.724;2023-12-28T03:15:04;9.48;;;4.85;;
19891;SDS011;10108;50.142;8.724;2023-12-28T03:17:31;11.10;;;5.45;;
19891;SDS011;10108;50.142;8.724;2023-12-28T03:19:58;9.32;;;5.25;;
19891;SDS011;10108;50.142;8.724;2023-12-28T03:22:24;10.63;;;5.30;;
19891;SDS011;10108;50.142;8.724;2023-12-28T03:24:51;11.50;;;5.75;;
19891;SDS011;10108;50.142;8.724;2023-12-28T03:27:17;9.95;;;5.18;;
19891;SDS011;10108;50.142;8.724;2023-12-28T03:29:44;8.43;;;4.88;;
19891;SDS011;10108;50.142;8.724;2023-12-28T03:32:10;11.43;;;5.25;;
19891;SDS011;10108;50.142;8.724;2023-12-28T03:34:36;8.82;;;5.03;;
19891;SDS011;10108;50.142;8.724;2023-12-28T03:37:03;10.05;;;5.47;;
19891;SDS011;10108;50.142;8.724;2023-12-28T03:39:29;10.15;;;5.28;;
19891;SDS011;10108;50.142;8.724;2023-12-28T03:41:55;11.55;;;4.93;;
19891;SDS011;10108;50.142;8.724;2023-12-28T03:44:22;9.93;;;5.20;;
19891;SDS011;10108;50.142;8.724;2023-12-28T03:46:48;9.43;;;4.88;;
19891;SDS011;10108;50.142;8.724;2023-12-28T03:49:19;9.02;;;5.00;;
19891;SDS011;10108;50.142;8.724;2023-12-28T03:51:46;9.80;;;5.10;;
19891;SDS011;10108;50.142;8.724;2023-12-28T03:54:17;10.85;;;5.10;;
19891;SDS011;10108;50.142;8.724;2023-12-28T03:56:45;8.13;;;4.80;;
19891;SDS011;10108;50.142;8.724;2023-12-28T03:59:11;13.23;;;5.38;;
19891;SDS011;10108;50.142;8.724;2023-12-28T04:01:37;10.52;;;5.53;;
19891;SDS011;10108;50.142;8.724;2023-12-28T04:04:04;8.82;;;5.00;;
19891;SDS011;10108;50.142;8.724;2023-12-28T04:06:30;8.68;;;4.75;;
19891;SDS011;10108;50.142;8.724;2023-12-28T04:08:57;9.63;;;4.78;;
19891;SDS011;10108;50.142;8.724;2023-12-28T04:11:23;10.27;;;5.00;;
19891;SDS011;10108;50.142;8.724;2023-12-28T04:13:49;11.00;;;5.00;;
19891;SDS011;10108;50.142;8.724;2023-12-28T04:16:16;11.05;;;5.07;;
19891;SDS011;10108;50.142;8.724;2023-12-28T04:18:42;10.55;;;5.53;;
19891;SDS011;10108;50.142;8.724;2023-12-28T04:21:10;10.18;;;5.10;;
19891;SDS011;10108;50.142;8.724;2023-12-28T04:23:37;9.18;;;4.70;;
19891;SDS011;10108;50.142;8.724;2023-12-28T04:26:05;9.80;;;4.93;;
19891;SDS011;10108;50.142;8.724;2023-12-28T04:28:31;13.00;;;5.47;;
19891;SDS011;10108;50.142;8.724;2023-12-28T04:31:06;11.27;;;5.18;;
19891;SDS011;10108;50.142;8.724;2023-12-28T04:33:33;8.32;;;4.63;;
19891;SDS011;10108;50.142;8.724;2023-12-28T04:36:02;10.75;;;5.03;;
19891;SDS011;10108;50.142;8.724;2023-12-28T04:38:29;8.02;;;4.65;;
19891;SDS011;10108;50.142;8.724;2023-12-28T04:41:00;10.75;;;4.78;;
19891;SDS011;10108;50.142;8.724;2023-12-28T04:43:27;9.55;;;4.97;;
19891;SDS011;10108;50.142;8.724;2023-12-28T04:45:53;9.10;;;4.72;;
19891;SDS011;10108;50.142;8.724;2023-12-28T04:48:19;7.75;;;4.60;;
19891;SDS011;10108;50.142;8.724;2023-12-28T04:50:49;10.50;;;4.97;;
19891;SDS011;10108;50.142;8.724;2023-12-28T04:53:16;9.65;;;4.80;;
19891;SDS011;10108;50.142;8.724;2023-12-28T04:55:42;9.73;;;5.07;;
19891;SDS011;10108;50.142;8.724;2023-12-28T04:58:08;9.57;;;4.60;;
19891;SDS011;10108;50.142;8.724;2023-12-28T05:00:36;9.80;;;5.00;;
19891;SDS011;10108;50.142;8.724;2023-12-28T05:03:02;8.45;;;4.80;;
19891;SDS011;10108;50.142;8.724;2023-12-28T05:05:29;10.13;;;4.90;;
19891;SDS011;10108;50.142;8.724;2023-12-28T05:07:55;11.27;;;5.38;;
19891;SDS011;10108;50.142;8.724;2023-12-28T05:10:21;9.05;;;4.78;;
19891;SDS011;10108;50.142;8.724;2023-12-28T05:12:48;8.88;;;4.63;;
19891;SDS011;10108;50.142;8.724;2023-12-28T05:15:14;8.30;;;4.63;;
19891;SDS011;10108;50.142;8.724;2023-12-28T05:17:41;9.50;;;4.70;;
19891;SDS011;10108;50.142;8.724;2023-12-28T05:20:07;8.45;;;4.32;;
19891;SDS011;10108;50.142;8.724;2023-12-28T05:22:33;7.93;;;4.53;;
19891;SDS011;10108;50.142;8.724;2023-12-28T05:24:59;8.63;;;4.72;;
19891;SDS011;10108;50.142;8.724;2023-12-28T05:27:25;9.40;;;4.70;;
19891;SDS011;10108;50.142;8.724;2023-12-28T05:29:52;10.90;;;4.57;;
19891;SDS011;10108;50.142;8.724;2023-12-28T05:32:18;8.15;;;4.35;;
19891;SDS011;10108;50.142;8.724;2023-12-28T05:34:44;9.05;;;5.00;;
19891;SDS011;10108;50.142;8.724;2023-12-28T05:37:10;10.38;;;4.60;;
19891;SDS011;10108;50.142;8.724;2023-12-28T05:39:37;10.18;;;4.80;;
19891;SDS011;10108;50.142;8.724;2023-12-28T05:42:03;9.00;;;4.45;;
19891;SDS011;10108;50.142;8.724;2023-12-28T05:44:29;9.95;;;4.70;;
19891;SDS011;10108;50.142;8.724;2023-12-28T05:46:55;8.55;;;4.63;;
19891;SDS011;10108;50.142;8.724;2023-12-28T05:49:22;9.35;;;4.72;;
19891;SDS011;10108;50.142;8.724;2023-12-28T05:51:50;8.52;;;4.18;;
19891;SDS011;10108;50.142;8.724;2023-12-28T05:54:16;7.40;;;4.32;;
19891;SDS011;10108;50.142;8.724;2023-12-28T05:56:42;9.75;;;4.40;;
19891;SDS011;10108;50.142;8.724;2023-12-28T05:59:08;8.00;;;4.47;;
19891;SDS011;10108;50.142;8.724;2023-12-28T06:01:41;8.57;;;4.40;;
19891;SDS011;10108;50.142;8.724;2023-12-28T06:04:08;10.38;;;4.90;;
19891;SDS011;10108;50.142;8.724;2023-12-28T06:06:35;7.32;;;4.38;;
19891;SDS011;10108;50.142;8.724;2023-12-28T06:09:02;9.35;;;4.47;;
19891;SDS011;10108;50.142;8.724;2023-12-28T06:11:29;9.60;;;4.32;;
19891;SDS011;10108;50.142;8.724;2023-12-28T06:13:55;9.15;;;4.30;;
19891;SDS011;10108;50.142;8.724;2023-12-28T06:16:21;11.52;;;4.43;;
19891;SDS011;10108;50.142;8.724;2023-12-28T06:18:48;8.98;;;4.75;;
19891;SDS011;10108;50.142;8.724;2023-12-28T06:21:14;8.50;;;4.85;;
19891;SDS011;10108;50.142;8.724;2023-12-28T06:23:41;8.70;;;4.50;;
19891;SDS011;10108;50.142;8.724;2023-12-28T06:26:07;8.50;;;4.35;;
19891;SDS011;10108;50.142;8.724;2023-12-28T06:28:33;8.63;;;4.00;;
19891;SDS011;10108;50.142;8.724;2023-12-28T06:30:59;7.80;;;4.35;;
19891;SDS011;10108;50.142;8.724;2023-12-28T06:33:27;8.52;;;4.70;;
19891;SDS011;10108;50.142;8.724;2023-12-28T06:35:54;8.52;;;4.40;;
19891;SDS011;10108;50.142;8.724;2023-12-28T06:38:20;9.93;;;4.50;;
19891;SDS011;10108;50.142;8.724;2023-12-28T06:40:46;11.13;;;4.50;;
19891;SDS011;10108;50.142;8.724;2023-12-28T06:43:12;8.77;;;4.80;;
19891;SDS011;10108;50.142;8.724;2023-12-28T06:45:39;7.60;;;4.60;;
19891;SDS011;10108;50.142;8.724;2023-12-28T06:48:05;11.38;;;5.15;;
19891;SDS011;10108;50.142;8.724;2023-12-28T06:50:31;8.73;;;4.57;;
19891;SDS011;10108;50.142;8.724;2023-12-28T06:52:57;10.73;;;4.72;;
19891;SDS011;10108;50.142;8.724;2023-12-28T06:55:23;8.68;;;4.60;;
19891;SDS011;10108;50.142;8.724;2023-12-28T06:57:49;7.82;;;4.47;;
19891;SDS011;10108;50.142;8.724;2023-12-28T07:00:15;10.93;;;4.38;;
19891;SDS011;10108;50.142;8.724;2023-12-28T07:02:42;9.50;;;4.30;;
19891;SDS011;10108;50.142;8.724;2023-12-28T07:05:08;6.82;;;4.05;;
19891;SDS011;10108;50.142;8.724;2023-12-28T07:07:34;9.85;;;4.13;;
19891;SDS011;10108;50.142;8.724;2023-12-28T07:10:02;7.38;;;4.03;;
19891;SDS011;10108;50.142;8.724;2023-12-28T07:12:29;6.97;;;3.42;;
19891;SDS011;10108;50.142;8.724;2023-12-28T07:14:55;8.75;;;4.05;;
19891;SDS011;10108;50.142;8.724;2023-12-28T07:17:21;6.88;;;3.75;;
19891;SDS011;10108;50.142;8.724;2023-12-28T07:19:47;7.10;;;3.80;;
19891;SDS011;10108;50.142;8.724;2023-12-28T07:22:13;7.20;;;3.88;;
19891;SDS011;10108;50.142;8.724;2023-12-28T07:24:39;6.63;;;3.95;;
19891;SDS011;10108;50.142;8.724;2023-12-28T07:27:05;7.07;;;3.63;;
19891;SDS011;10108;50.142;8.724;2023-12-28T07:29:31;7.13;;;3.95;;
19891;SDS011;10108;50.142;8.724;2023-12-28T07:31:58;6.47;;;3.85;;
19891;SDS011;10108;50.142;8.724;2023-12-28T07:34:24;6.75;;;3.88;;
19891;SDS011;10108;50.142;8.724;2023-12-28T07:36:50;6.05;;;3.70;;
19891;SDS011;10108;50.142;8.724;2023-12-28T07:39:16;9.75;;;4.05;;
19891;SDS011;10108;50.142;8.724;2023-12-28T07:41:42;7.38;;;3.50;;
19891;SDS011;10108;50.142;8.724;2023-12-28T07:44:08;9.25;;;4.07;;
19891;SDS011;10108;50.142;8.724;2023-12-28T07:46:34;7.47;;;4.25;;
19891;SDS011;10108;50.142;8.724;2023-12-28T07:49:01;7.95;;;4.03;;
19891;SDS011;10108;50.142;8.724;2023-12-28T07:51:27;6.10;;;3.63;;
19891;SDS011;10108;50.142;8.724;2023-12-28T07:53:53;7.10;;;4.30;;
19891;SDS011;10108;50.142;8.724;2023-12-28T07:56:19;8.27;;;4.00;;
19891;SDS011;10108;50.142;8.724;2023-12-28T07:58:45;7.82;;;3.95;;
19891;SDS011;10108;50.142;8.724;2023-12-28T08:01:11;5.18;;;3.50;;
19891;SDS011;10108;50.142;8.724;2023-12-28T08:03:37;8.30;;;3.90;;
19891;SDS011;10108;50.142;8.724;2023-12-28T08:06:03;6.82;;;3.80;;
19891;SDS011;10108;50.142;8.724;2023-12-28T08:08:30;6.60;;;3.80;;
19891;SDS011;10108;50.142;8.724;2023-12-28T08:10:57;7.72;;;3.88;;
19891;SDS011;10108;50.142;8.724;2023-12-28T08:13:23;7.63;;;3.85;;
19891;SDS011;10108;50.142;8.724;2023-12-28T08:15:49;8.30;;;4.22;;
19891;SDS011;10108;50.142;8.724;2023-12-28T08:18:15;7.07;;;3.72;;
19891;SDS011;10108;50.142;8.724;2023-12-28T08:20:41;6.95;;;3.60;;
19891;SDS011;10108;50.142;8.724;2023-12-28T08:23:07;8.10;;;3.70;;
19891;SDS011;10108;50.142;8.724;2023-12-28T08:25:34;7.50;;;4.03;;
19891;SDS011;10108;50.142;8.724;2023-12-28T08:28:00;6.10;;;3.60;;
19891;SDS011;10108;50.142;8.724;2023-12-28T08:30:26;7.25;;;3.67;;
19891;SDS011;10108;50.142;8.724;2023-12-28T08:32:53;8.05;;;3.78;;
19891;SDS011;10108;50.142;8.724;2023-12-28T08:35:19;8.75;;;4.00;;
19891;SDS011;10108;50.142;8.724;2023-12-28T08:37:45;9.25;;;4.15;;
19891;SDS011;10108;50.142;8.724;2023-12-28T08:40:11;7.57;;;3.92;;
19891;SDS011;10108;50.142;8.724;2023-12-28T08:42:37;9.38;;;3.80;;
19891;SDS011;10108;50.142;8.724;2023-12-28T08:45:04;7.22;;;3.40;;
19891;SDS011;10108;50.142;8.724;2023-12-28T08:47:31;7.47;;;3.90;;
19891;SDS011;10108;50.142;8.724;2023-12-28T08:49:57;9.13;;;4.20;;
19891;SDS011;10108;50.142;8.724;2023-12-28T08:52:23;8.25;;;4.00;;
19891;SDS011;10108;50.142;8.724;2023-12-28T08:54:49;7.53;;;3.70;;
19891;SDS011;10108;50.142;8.724;2023-12-28T08:57:15;9.73;;;4.10;;
19891;SDS011;10108;50.142;8.724;2023-12-28T08:59:41;10.25;;;4.15;;
19891;SDS011;10108;50.142;8.724;2023-12-28T09:02:07;7.70;;;3.70;;
19891;SDS011;10108;50.142;8.724;2023-12-28T09:04:33;8.70;;;3.80;;
19891;SDS011;10108;50.142;8.724;2023-12-28T09:06:59;10.43;;;4.18;;
19891;SDS011;10108;50.142;8.724;2023-12-28T09:09:26;6.97;;;3.80;;
19891;SDS011;10108;50.142;8.724;2023-12-28T09:11:52;8.57;;;4.03;;
19891;SDS011;10108;50.142;8.724;2023-12-28T09:14:18;7.32;;;3.78;;
19891;SDS011;10108;50.142;8.724;2023-12-28T09:16:45;10.48;;;4.15;;
19891;SDS011;10108;50.142;8.724;2023-12-28T09:19:12;10.40;;;3.95;;
19891;SDS011;10108;50.142;8.724;2023-12-28T09:21:38;10.60;;;4.10;;
19891;SDS011;10108;50.142;8.724;2023-12-28T09:24:04;9.07;;;3.78;;
19891;SDS011;10108;50.142;8.724;2023-12-28T09:26:30;6.95;;;3.60;;
19891;SDS011;10108;50.142;8.724;2023-12-28T09:28:57;9.38;;;4.40;;
19891;SDS011;10108;50.142;8.724;2023-12-28T09:31:24;8.27;;;3.88;;
19891;SDS011;10108;50.142;8.724;2023-12-28T09:33:50;9.63;;;3.83;;
19891;SDS011;10108;50.142;8.724;2023-12-28T09:36:17;8.88;;;3.65;;
19891;SDS011;10108;50.142;8.724;2023-12-28T09:38:43;7.28;;;3.50;;
19891;SDS011;10108;50.142;8.724;2023-12-28T09:41:12;7.32;;;3.90;;
19891;SDS011;10108;50.142;8.724;2023-12-28T09:44:03;10.73;;;4.00;;
19891;SDS011;10108;50.142;8.724;2023-12-28T09:46:32;7.97;;;3.88;;
19891;SDS011;10108;50.142;8.724;2023-12-28T09:48:59;7.80;;;3.95;;
19891;SDS011;10108;50.142;8.724;2023-12-28T09:51:25;10.75;;;4.20;;
19891;SDS011;10108;50.142;8.724;2023-12-28T09:53:52;6.38;;;3.55;;
19891;SDS011;10108;50.142;8.724;2023-12-28T09:56:18;8.27;;;3.90;;
19891;SDS011;10108;50.142;8.724;2023-12-28T09:58:44;7.18;;;3.70;;
19891;SDS011;10108;50.142;8.724;2023-12-28T10:01:14;8.10;;;3.92;;
19891;SDS011;10108;50.142;8.724;2023-12-28T10:03:41;8.40;;;3.58;;
19891;SDS011;10108;50.142;8.724;2023-12-28T10:06:07;9.02;;;3.58;;
19891;SDS011;10108;50.142;8.724;2023-12-28T10:08:33;8.90;;;3.70;;
19891;SDS011;10108;50.142;8.724;2023-12-28T10:11:02;6.15;;;3.40;;
19891;SDS011;10108;50.142;8.724;2023-12-28T10:13:29;7.47;;;3.65;;
19891;SDS011;10108;50.142;8.724;2023-12-28T10:15:59;9.52;;;3.85;;
19891;SDS011;10108;50.142;8.724;2023-12-28T10:18:25;9.05;;;3.85;;
19891;SDS011;10108;50.142;8.724;2023-12-28T10:20:52;7.90;;;3.95;;
19891;SDS011;10108;50.142;8.724;2023-12-28T10:23:19;8.80;;;3.70;;
19891;SDS011;10108;50.142;8.724;2023-12-28T10:25:46;6.97;;;3.40;;
19891;SDS011;10108;50.142;8.724;2023-12-28T10:28:15;10.00;;;3.80;;
19891;SDS011;10108;50.142;8.724;2023-12-28T10:30:44;6.40;;;3.22;;
19891;SDS011;10108;50.142;8.724;2023-12-28T10:33:10;11.40;;;3.50;;
19891;SDS011;10108;50.142;8.724;2023-12-28T10:35:36;8.98;;;3.92;;
19891;SDS011;10108;50.142;8.724;2023-12-28T10:38:02;7.32;;;3.50;;
19891;SDS011;10108;50.142;8.724;2023-12-28T10:40:30;7.45;;;3.28;;
19891;SDS011;10108;50.142;8.724;2023-12-28T10:42:58;6.63;;;3.22;;
19891;SDS011;10108;50.142;8.724;2023-12-28T10:45:29;6.18;;;3.15;;
19891;SDS011;10108;50.142;8.724;2023-12-28T10:48:04;7.60;;;3.30;;
19891;SDS011;10108;50.142;8.724;2023-12-28T10:50:34;7.72;;;3.45;;
19891;SDS011;10108;50.142;8.724;2023-12-28T10:53:19;8.02;;;3.40;;
19891;SDS011;10108;50.142;8.724;2023-12-28T10:58:48;6.28;;;3.20;;
19891;SDS011;10108;50.142;8.724;2023-12-28T11:01:17;8.52;;;3.28;;
19891;SDS011;10108;50.142;8.724;2023-12-28T11:03:51;10.60;;;3.63;;
19891;SDS011;10108;50.142;8.724;2023-12-28T11:06:23;6.63;;;3.25;;
19891;SDS011;10108;50.142;8.724;2023-12-28T11:08:52;8.15;;;3.20;;
19891;SDS011;10108;50.142;8.724;2023-12-28T11:11:21;7.03;;;3.30;;
19891;SDS011;10108;50.142;8.724;2023-12-28T11:13:48;7.38;;;3.83;;
19891;SDS011;10108;50.142;8.724;2023-12-28T11:16:17;6.55;;;3.00;;
19891;SDS011;10108;50.142;8.724;2023-12-28T11:18:44;6.72;;;3.08;;
19891;SDS011;10108;50.142;8.724;2023-12-28T11:21:10;8.27;;;3.55;;
19891;SDS011;10108;50.142;8.724;2023-12-28T11:23:37;7.20;;;3.08;;
19891;SDS011;10108;50.142;8.724;2023-12-28T11:26:04;7.68;;;3.22;;
19891;SDS011;10108;50.142;8.724;2023-12-28T11:28:40;7.50;;;3.35;;
19891;SDS011;10108;50.142;8.724;2023-12-28T11:31:09;9.77;;;3.70;;
19891;SDS011;10108;50.142;8.724;2023-12-28T11:33:47;7.35;;;2.95;;
19891;SDS011;10108;50.142;8.724;2023-12-28T11:36:25;7.35;;;3.00;;
19891;SDS011;10108;50.142;8.724;2023-12-28T11:39:06;8.30;;;3.60;;
19891;SDS011;10108;50.142;8.724;2023-12-28T11:41:32;6.35;;;2.92;;
19891;SDS011;10108;50.142;8.724;2023-12-28T11:44:04;7.70;;;3.17;;
19891;SDS011;10108;50.142;8.724;2023-12-28T11:46:31;6.68;;;3.50;;
19891;SDS011;10108;50.142;8.724;2023-12-28T11:49:04;6.97;;;3.05;;
19891;SDS011;10108;50.142;8.724;2023-12-28T11:51:32;7.65;;;3.50;;
19891;SDS011;10108;50.142;8.724;2023-12-28T11:53:59;6.90;;;3.10;;
19891;SDS011;10108;50.142;8.724;2023-12-28T11:56:25;6.43;;;3.25;;
19891;SDS011;10108;50.142;8.724;2023-12-28T11:58:52;8.95;;;3.33;;
19891;SDS011;10108;50.142;8.724;2023-12-28T12:01:18;7.00;;;3.30;;
19891;SDS011;10108;50.142;8.724;2023-12-28T12:03:44;5.63;;;3.20;;
19891;SDS011;10108;50.142;8.724;2023-12-28T12:06:10;7.75;;;3.47;;
19891;SDS011;10108;50.142;8.724;2023-12-28T12:08:36;8.90;;;3.75;;
19891;SDS011;10108;50.142;8.724;2023-12-28T12:11:04;7.78;;;3.50;;
19891;SDS011;10108;50.142;8.724;2023-12-28T12:13:31;8.45;;;3.40;;
19891;SDS011;10108;50.142;8.724;2023-12-28T12:15:58;6.40;;;3.13;;
19891;SDS011;10108;50.142;8.724;2023-12-28T12:18:25;7.45;;;3.28;;
19891;SDS011;10108;50.142;8.724;2023-12-28T12:20:51;7.35;;;3.40;;
19891;SDS011;10108;50.142;8.724;2023-12-28T12:23:18;9.82;;;3.58;;
19891;SDS011;10108;50.142;8.724;2023-12-28T12:25:44;8.80;;;3.75;;
19891;SDS011;10108;50.142;8.724;2023-12-28T12:28:11;7.95;;;3.47;;
19891;SDS011;10108;50.142;8.724;2023-12-28T12:30:37;6.43;;;3.50;;
19891;SDS011;10108;50.142;8.724;2023-12-28T12:33:03;6.38;;;3.00;;
19891;SDS011;10108;50.142;8.724;2023-12-28T12:35:30;7.15;;;3.33;;
19891;SDS011;10108;50.142;8.724;2023-12-28T12:37:57;6.80;;;3.70;;
19891;SDS011;10108;50.142;8.724;2023-12-28T12:40:24;6.57;;;3.28;;
19891;SDS011;10108;50.142;8.724;2023-12-28T12:42:51;6.32;;;3.28;;
19891;SDS011;10108;50.142;8.724;2023-12-28T12:45:21;8.77;;;3.50;;
19891;SDS011;10108;50.142;8.724;2023-12-28T12:47:47;6.70;;;3.50;;
19891;SDS011;10108;50.142;8.724;2023-12-28T12:50:15;9.23;;;3.63;;
19891;SDS011;10108;50.142;8.724;2023-12-28T12:52:41;6.97;;;3.20;;
19891;SDS011;10108;50.142;8.724;2023-12-28T12:55:12;6.70;;;3.25;;
19891;SDS011;10108;50.142;8.724;2023-12-28T12:57:39;6.47;;;3.53;;
19891;SDS011;10108;50.142;8.724;2023-12-28T13:00:09;7.40;;;3.45;;
19891;SDS011;10108;50.142;8.724;2023-12-28T13:02:36;7.63;;;3.17;;
19891;SDS011;10108;50.142;8.724;2023-12-28T13:05:03;7.90;;;3.20;;
19891;SDS011;10108;50.142;8.724;2023-12-28T13:07:31;7.60;;;3.30;;
19891;SDS011;10108;50.142;8.724;2023-12-28T13:09:57;7.20;;;3.25;;
19891;SDS011;10108;50.142;8.724;2023-12-28T13:12:24;10.77;;;3.58;;
19891;SDS011;10108;50.142;8.724;2023-12-28T13:14:51;6.53;;;3.35;;
19891;SDS011;10108;50.142;8.724;2023-12-28T13:17:17;6.57;;;3.30;;
19891;SDS011;10108;50.142;8.724;2023-12-28T13:19:43;8.65;;;3.30;;
19891;SDS011;10108;50.142;8.724;2023-12-28T13:22:09;5.97;;;2.90;;
19891;SDS011;10108;50.142;8.724;2023-12-28T13:24:35;7.30;;;3.55;;
19891;SDS011;10108;50.142;8.724;2023-12-28T13:27:01;9.68;;;3.50;;
19891;SDS011;10108;50.142;8.724;2023-12-28T13:29:28;10.15;;;3.45;;
19891;SDS011;10108;50.142;8.724;2023-12-28T13:31:55;10.32;;;3.47;;
19891;SDS011;10108;50.142;8.724;2023-12-28T13:34:21;9.23;;;3.50;;
19891;SDS011;10108;50.142;8.724;2023-12-28T13:36:48;9.13;;;3.47;;
19891;SDS011;10108;50.142;8.724;2023-12-28T13:39:14;10.18;;;3.92;;
19891;SDS011;10108;50.142;8.724;2023-12-28T13:41:41;9.27;;;3.28;;
19891;SDS011;10108;50.142;8.724;2023-12-28T13:44:07;7.72;;;3.13;;
19891;SDS011;10108;50.142;8.724;2023-12-28T13:46:40;10.65;;;3.67;;
19891;SDS011;10108;50.142;8.724;2023-12-28T13:49:06;10.55;;;3.40;;
19891;SDS011;10108;50.142;8.724;2023-12-28T13:51:33;8.10;;;3.00;;
19891;SDS011;10108;50.142;8.724;2023-12-28T13:54:00;7.82;;;3.50;;
19891;SDS011;10108;50.142;8.724;2023-12-28T13:56:26;8.20;;;3.17;;
19891;SDS011;10108;50.142;8.724;2023-12-28T13:58:52;9.00;;;3.60;;
19891;SDS011;10108;50.142;8.724;2023-12-28T14:01:18;10.73;;;3.20;;
19891;SDS011;10108;50.142;8.724;2023-12-28T14:03:45;8.60;;;3.58;;
19891;SDS011;10108;50.142;8.724;2023-12-28T14:06:13;9.15;;;3.20;;
19891;SDS011;10108;50.142;8.724;2023-12-28T14:08:39;8.15;;;3.28;;
19891;SDS011;10108;50.142;8.724;2023-12-28T14:11:05;6.90;;;3.05;;
19891;SDS011;10108;50.142;8.724;2023-12-28T14:13:32;10.35;;;3.38;;
19891;SDS011;10108;50.142;8.724;2023-12-28T14:16:00;7.63;;;3.13;;
19891;SDS011;10108;50.142;8.724;2023-12-28T14:18:26;6.68;;;2.88;;
19891;SDS011;10108;50.142;8.724;2023-12-28T14:20:52;4.20;;;2.60;;
19891;SDS011;10108;50.142;8.724;2023-12-28T14:23:18;5.40;;;2.60;;
19891;SDS011;10108;50.142;8.724;2023-12-28T14:25:45;5.82;;;2.70;;
19891;SDS011;10108;50.142;8.724;2023-12-28T14:28:17;7.68;;;2.70;;
19891;SDS011;10108;50.142;8.724;2023-12-28T14:30:43;4.57;;;2.67;;
19891;SDS011;10108;50.142;8.724;2023-12-28T14:33:10;5.95;;;2.80;;
19891;SDS011;10108;50.142;8.724;2023-12-28T14:35:36;5.70;;;2.53;;
19891;SDS011;10108;50.142;8.724;2023-12-28T14:38:04;5.22;;;2.35;;
19891;SDS011;10108;50.142;8.724;2023-12-28T14:40:34;5.93;;;2.20;;
19891;SDS011;10108;50.142;8.724;2023-12-28T14:43:00;4.65;;;2.50;;
19891;SDS011;10108;50.142;8.724;2023-12-28T14:45:26;3.95;;;2.30;;